West Franklin, New Hampshire
Current Conditions -  °F | °C
As of 12:55 PM on Friday 21 Nov 2014 (Local Time) from KLCI Reporting Station
Overcast Overcast  
Wind Chill: 17°   Ceiling: 5000
Heat Index: 28°   Visibility: 10mi
Dew Point:   Wind: 15mph
Humidity: 40%   Direction: 270°W
Pressure: 30.08"   Gusts: 30mph
Location:  43.4435°N, 71.6697°W
Report Text: KLCI 211755Z AUTO 27013G26KT 10SM OVC050 M02/M14 A3008 RMK AO1 11010 21050 52014
Loading
Personal Weather Stations






























Interactive Weather Map New forecast layout! Learn more

10-Day Weather Forecast

Advertisements
Track Severe Weather on mobile